sensor_id;sensor_type;location;lat;lon;timestamp;P1;durP1;ratioP1;P2;durP2;ratioP2
39078;SDS011;24829;49.208;12.080;2024-03-08T00:00:42;46.30;;;22.27;;
39078;SDS011;24829;49.208;12.080;2024-03-08T00:03:08;39.55;;;22.67;;
39078;SDS011;24829;49.208;12.080;2024-03-08T00:05:35;41.83;;;22.33;;
39078;SDS011;24829;49.208;12.080;2024-03-08T00:08:01;35.75;;;20.77;;
39078;SDS011;24829;49.208;12.080;2024-03-08T00:10:26;38.58;;;20.92;;
39078;SDS011;24829;49.208;12.080;2024-03-08T00:12:54;40.42;;;22.02;;
39078;SDS011;24829;49.208;12.080;2024-03-08T00:15:19;42.60;;;22.55;;
39078;SDS011;24829;49.208;12.080;2024-03-08T00:17:48;41.03;;;21.67;;
39078;SDS011;24829;49.208;12.080;2024-03-08T00:20:13;40.65;;;20.08;;
39078;SDS011;24829;49.208;12.080;2024-03-08T00:22:39;39.45;;;22.70;;
39078;SDS011;24829;49.208;12.080;2024-03-08T00:25:06;44.92;;;22.35;;
39078;SDS011;24829;49.208;12.080;2024-03-08T00:27:35;45.78;;;22.27;;
39078;SDS011;24829;49.208;12.080;2024-03-08T00:30:01;43.90;;;22.25;;
39078;SDS011;24829;49.208;12.080;2024-03-08T00:32:27;38.95;;;21.17;;
39078;SDS011;24829;49.208;12.080;2024-03-08T00:34:53;40.60;;;22.23;;
39078;SDS011;24829;49.208;12.080;2024-03-08T00:37:19;40.75;;;21.55;;
39078;SDS011;24829;49.208;12.080;2024-03-08T00:39:47;45.85;;;21.35;;
39078;SDS011;24829;49.208;12.080;2024-03-08T00:42:14;38.75;;;20.77;;
39078;SDS011;24829;49.208;12.080;2024-03-08T00:44:40;48.45;;;23.42;;
39078;SDS011;24829;49.208;12.080;2024-03-08T00:47:06;39.85;;;22.67;;
39078;SDS011;24829;49.208;12.080;2024-03-08T00:49:31;44.08;;;23.00;;
39078;SDS011;24829;49.208;12.080;2024-03-08T00:51:57;43.55;;;22.40;;
39078;SDS011;24829;49.208;12.080;2024-03-08T00:54:23;43.72;;;21.35;;
39078;SDS011;24829;49.208;12.080;2024-03-08T00:56:48;46.53;;;23.00;;
39078;SDS011;24829;49.208;12.080;2024-03-08T00:59:14;45.78;;;22.60;;
39078;SDS011;24829;49.208;12.080;2024-03-08T01:01:40;36.63;;;21.02;;
39078;SDS011;24829;49.208;12.080;2024-03-08T01:04:06;41.38;;;22.48;;
39078;SDS011;24829;49.208;12.080;2024-03-08T01:06:32;41.50;;;22.63;;
39078;SDS011;24829;49.208;12.080;2024-03-08T01:08:59;46.55;;;22.27;;
39078;SDS011;24829;49.208;12.080;2024-03-08T01:11:24;43.35;;;21.95;;
39078;SDS011;24829;49.208;12.080;2024-03-08T01:13:50;41.15;;;22.35;;
39078;SDS011;24829;49.208;12.080;2024-03-08T01:16:15;38.08;;;20.88;;
39078;SDS011;24829;49.208;12.080;2024-03-08T01:18:45;37.45;;;21.10;;
39078;SDS011;24829;49.208;12.080;2024-03-08T01:21:11;43.55;;;23.30;;
39078;SDS011;24829;49.208;12.080;2024-03-08T01:23:37;45.83;;;23.65;;
39078;SDS011;24829;49.208;12.080;2024-03-08T01:26:02;43.17;;;21.65;;
39078;SDS011;24829;49.208;12.080;2024-03-08T01:28:28;39.25;;;21.58;;
39078;SDS011;24829;49.208;12.080;2024-03-08T01:30:55;44.45;;;22.63;;
39078;SDS011;24829;49.208;12.080;2024-03-08T01:33:24;43.25;;;24.20;;
39078;SDS011;24829;49.208;12.080;2024-03-08T01:35:51;42.95;;;22.95;;
39078;SDS011;24829;49.208;12.080;2024-03-08T01:38:17;45.72;;;22.95;;
39078;SDS011;24829;49.208;12.080;2024-03-08T01:40:43;44.08;;;22.50;;
39078;SDS011;24829;49.208;12.080;2024-03-08T01:46:01;45.22;;;22.98;;
39078;SDS011;24829;49.208;12.080;2024-03-08T01:48:28;44.00;;;23.27;;
39078;SDS011;24829;49.208;12.080;2024-03-08T01:50:55;42.13;;;21.00;;
39078;SDS011;24829;49.208;12.080;2024-03-08T01:53:22;39.15;;;21.77;;
39078;SDS011;24829;49.208;12.080;2024-03-08T01:55:50;45.63;;;24.85;;
39078;SDS011;24829;49.208;12.080;2024-03-08T01:58:19;39.88;;;21.20;;
39078;SDS011;24829;49.208;12.080;2024-03-08T02:00:47;38.58;;;22.45;;
39078;SDS011;24829;49.208;12.080;2024-03-08T02:03:16;45.83;;;21.52;;
39078;SDS011;24829;49.208;12.080;2024-03-08T02:05:42;42.25;;;20.95;;
39078;SDS011;24829;49.208;12.080;2024-03-08T02:08:08;42.97;;;23.42;;
39078;SDS011;24829;49.208;12.080;2024-03-08T02:10:43;44.42;;;25.10;;
39078;SDS011;24829;49.208;12.080;2024-03-08T02:13:10;46.05;;;21.73;;
39078;SDS011;24829;49.208;12.080;2024-03-08T02:15:55;39.95;;;21.48;;
39078;SDS011;24829;49.208;12.080;2024-03-08T02:18:22;40.55;;;21.60;;
39078;SDS011;24829;49.208;12.080;2024-03-08T02:20:51;42.90;;;22.13;;
39078;SDS011;24829;49.208;12.080;2024-03-08T02:23:21;39.83;;;22.02;;
39078;SDS011;24829;49.208;12.080;2024-03-08T02:25:48;48.30;;;23.90;;
39078;SDS011;24829;49.208;12.080;2024-03-08T02:28:14;39.00;;;22.02;;
39078;SDS011;24829;49.208;12.080;2024-03-08T02:30:40;45.78;;;21.40;;
39078;SDS011;24829;49.208;12.080;2024-03-08T02:33:06;43.00;;;23.23;;
39078;SDS011;24829;49.208;12.080;2024-03-08T02:35:35;43.15;;;23.48;;
39078;SDS011;24829;49.208;12.080;2024-03-08T02:38:02;39.45;;;21.92;;
39078;SDS011;24829;49.208;12.080;2024-03-08T02:40:28;43.47;;;21.63;;
39078;SDS011;24829;49.208;12.080;2024-03-08T02:42:54;40.58;;;21.83;;
39078;SDS011;24829;49.208;12.080;2024-03-08T02:45:20;40.95;;;21.75;;
39078;SDS011;24829;49.208;12.080;2024-03-08T02:47:45;45.33;;;23.20;;
39078;SDS011;24829;49.208;12.080;2024-03-08T02:50:11;39.90;;;21.77;;
39078;SDS011;24829;49.208;12.080;2024-03-08T02:52:41;43.80;;;23.45;;
39078;SDS011;24829;49.208;12.080;2024-03-08T02:55:07;43.08;;;22.70;;
39078;SDS011;24829;49.208;12.080;2024-03-08T02:57:35;42.45;;;23.23;;
39078;SDS011;24829;49.208;12.080;2024-03-08T03:00:01;44.45;;;23.30;;
39078;SDS011;24829;49.208;12.080;2024-03-08T03:02:28;48.75;;;24.20;;
39078;SDS011;24829;49.208;12.080;2024-03-08T03:04:54;46.75;;;23.70;;
39078;SDS011;24829;49.208;12.080;2024-03-08T03:07:21;40.15;;;20.85;;
39078;SDS011;24829;49.208;12.080;2024-03-08T03:09:46;52.08;;;24.27;;
39078;SDS011;24829;49.208;12.080;2024-03-08T03:12:12;41.50;;;21.75;;
39078;SDS011;24829;49.208;12.080;2024-03-08T03:14:39;52.80;;;24.33;;
39078;SDS011;24829;49.208;12.080;2024-03-08T03:17:04;45.92;;;23.45;;
39078;SDS011;24829;49.208;12.080;2024-03-08T03:19:30;45.08;;;23.20;;
39078;SDS011;24829;49.208;12.080;2024-03-08T03:21:56;43.92;;;22.63;;
39078;SDS011;24829;49.208;12.080;2024-03-08T03:24:22;45.88;;;23.67;;
39078;SDS011;24829;49.208;12.080;2024-03-08T03:26:48;47.75;;;23.63;;
39078;SDS011;24829;49.208;12.080;2024-03-08T03:29:14;45.75;;;24.10;;
39078;SDS011;24829;49.208;12.080;2024-03-08T03:31:42;44.58;;;23.73;;
39078;SDS011;24829;49.208;12.080;2024-03-08T03:34:11;46.20;;;22.60;;
39078;SDS011;24829;49.208;12.080;2024-03-08T03:36:37;48.28;;;24.58;;
39078;SDS011;24829;49.208;12.080;2024-03-08T03:39:07;44.50;;;21.83;;
39078;SDS011;24829;49.208;12.080;2024-03-08T03:41:38;43.25;;;22.17;;
39078;SDS011;24829;49.208;12.080;2024-03-08T03:44:04;41.58;;;22.02;;
39078;SDS011;24829;49.208;12.080;2024-03-08T03:46:33;47.55;;;23.88;;
39078;SDS011;24829;49.208;12.080;2024-03-08T03:48:59;39.97;;;21.95;;
39078;SDS011;24829;49.208;12.080;2024-03-08T03:51:25;42.88;;;20.17;;
39078;SDS011;24829;49.208;12.080;2024-03-08T03:53:51;46.78;;;23.60;;
39078;SDS011;24829;49.208;12.080;2024-03-08T03:56:18;45.13;;;24.02;;
39078;SDS011;24829;49.208;12.080;2024-03-08T03:58:44;41.25;;;22.42;;
39078;SDS011;24829;49.208;12.080;2024-03-08T04:01:09;46.97;;;24.38;;
39078;SDS011;24829;49.208;12.080;2024-03-08T04:03:35;42.30;;;22.48;;
39078;SDS011;24829;49.208;12.080;2024-03-08T04:06:01;43.90;;;23.13;;
39078;SDS011;24829;49.208;12.080;2024-03-08T04:08:30;44.35;;;23.02;;
39078;SDS011;24829;49.208;12.080;2024-03-08T04:10:56;46.33;;;23.60;;
39078;SDS011;24829;49.208;12.080;2024-03-08T04:13:23;52.70;;;24.63;;
39078;SDS011;24829;49.208;12.080;2024-03-08T04:15:48;51.25;;;24.17;;
39078;SDS011;24829;49.208;12.080;2024-03-08T04:18:14;43.35;;;22.65;;
39078;SDS011;24829;49.208;12.080;2024-03-08T04:20:40;48.85;;;24.55;;
39078;SDS011;24829;49.208;12.080;2024-03-08T04:23:05;43.15;;;22.17;;
39078;SDS011;24829;49.208;12.080;2024-03-08T04:25:31;41.35;;;21.67;;
39078;SDS011;24829;49.208;12.080;2024-03-08T04:27:57;46.58;;;23.20;;
39078;SDS011;24829;49.208;12.080;2024-03-08T04:30:22;46.03;;;22.17;;
39078;SDS011;24829;49.208;12.080;2024-03-08T04:32:49;49.92;;;25.08;;
39078;SDS011;24829;49.208;12.080;2024-03-08T04:35:14;49.58;;;23.88;;
39078;SDS011;24829;49.208;12.080;2024-03-08T04:37:40;45.65;;;22.80;;
39078;SDS011;24829;49.208;12.080;2024-03-08T04:40:06;44.78;;;23.95;;
39078;SDS011;24829;49.208;12.080;2024-03-08T04:42:32;43.78;;;22.65;;
39078;SDS011;24829;49.208;12.080;2024-03-08T04:44:59;47.55;;;23.45;;
39078;SDS011;24829;49.208;12.080;2024-03-08T04:47:25;52.53;;;24.83;;
39078;SDS011;24829;49.208;12.080;2024-03-08T04:49:51;47.15;;;24.27;;
39078;SDS011;24829;49.208;12.080;2024-03-08T04:52:16;48.45;;;24.08;;
39078;SDS011;24829;49.208;12.080;2024-03-08T04:54:43;53.95;;;24.02;;
39078;SDS011;24829;49.208;12.080;2024-03-08T04:57:09;108.25;;;51.10;;
39078;SDS011;24829;49.208;12.080;2024-03-08T04:59:36;58.53;;;29.45;;
39078;SDS011;24829;49.208;12.080;2024-03-08T05:02:01;51.38;;;25.95;;
39078;SDS011;24829;49.208;12.080;2024-03-08T05:04:27;58.22;;;31.65;;
39078;SDS011;24829;49.208;12.080;2024-03-08T05:06:54;49.28;;;25.30;;
39078;SDS011;24829;49.208;12.080;2024-03-08T05:09:19;50.35;;;26.65;;
39078;SDS011;24829;49.208;12.080;2024-03-08T05:11:46;50.45;;;26.45;;
39078;SDS011;24829;49.208;12.080;2024-03-08T05:14:13;52.00;;;25.40;;
39078;SDS011;24829;49.208;12.080;2024-03-08T05:16:42;48.28;;;24.85;;
39078;SDS011;24829;49.208;12.080;2024-03-08T05:19:13;52.30;;;24.73;;
39078;SDS011;24829;49.208;12.080;2024-03-08T05:21:45;49.80;;;26.60;;
39078;SDS011;24829;49.208;12.080;2024-03-08T05:24:12;56.63;;;26.73;;
39078;SDS011;24829;49.208;12.080;2024-03-08T05:26:39;51.47;;;26.20;;
39078;SDS011;24829;49.208;12.080;2024-03-08T05:29:05;48.47;;;25.23;;
39078;SDS011;24829;49.208;12.080;2024-03-08T05:31:33;48.65;;;25.55;;
39078;SDS011;24829;49.208;12.080;2024-03-08T05:34:10;56.88;;;27.08;;
39078;SDS011;24829;49.208;12.080;2024-03-08T05:36:36;52.20;;;27.80;;
39078;SDS011;24829;49.208;12.080;2024-03-08T05:39:01;49.08;;;23.98;;
39078;SDS011;24829;49.208;12.080;2024-03-08T05:41:27;47.72;;;25.33;;
39078;SDS011;24829;49.208;12.080;2024-03-08T05:43:53;55.40;;;26.80;;
39078;SDS011;24829;49.208;12.080;2024-03-08T05:46:18;56.55;;;25.05;;
39078;SDS011;24829;49.208;12.080;2024-03-08T05:48:44;51.40;;;24.85;;
39078;SDS011;24829;49.208;12.080;2024-03-08T05:51:10;50.58;;;25.75;;
39078;SDS011;24829;49.208;12.080;2024-03-08T05:53:37;49.55;;;24.80;;
39078;SDS011;24829;49.208;12.080;2024-03-08T05:56:02;53.65;;;26.13;;
39078;SDS011;24829;49.208;12.080;2024-03-08T05:58:28;50.97;;;25.40;;
39078;SDS011;24829;49.208;12.080;2024-03-08T06:00:57;51.50;;;27.25;;
39078;SDS011;24829;49.208;12.080;2024-03-08T06:03:22;51.75;;;26.27;;
39078;SDS011;24829;49.208;12.080;2024-03-08T06:05:48;51.17;;;25.95;;
39078;SDS011;24829;49.208;12.080;2024-03-08T06:08:14;46.25;;;24.45;;
39078;SDS011;24829;49.208;12.080;2024-03-08T06:10:40;43.17;;;23.38;;
39078;SDS011;24829;49.208;12.080;2024-03-08T06:13:06;48.15;;;23.38;;
39078;SDS011;24829;49.208;12.080;2024-03-08T06:15:32;39.85;;;22.52;;
39078;SDS011;24829;49.208;12.080;2024-03-08T06:17:57;45.80;;;26.23;;
39078;SDS011;24829;49.208;12.080;2024-03-08T06:20:23;53.50;;;28.08;;
39078;SDS011;24829;49.208;12.080;2024-03-08T06:22:51;55.40;;;28.58;;
39078;SDS011;24829;49.208;12.080;2024-03-08T06:25:17;63.33;;;34.17;;
39078;SDS011;24829;49.208;12.080;2024-03-08T06:27:43;48.88;;;27.17;;
39078;SDS011;24829;49.208;12.080;2024-03-08T06:30:09;42.53;;;23.83;;
39078;SDS011;24829;49.208;12.080;2024-03-08T06:32:36;37.75;;;22.42;;
39078;SDS011;24829;49.208;12.080;2024-03-08T06:35:02;42.50;;;21.83;;
39078;SDS011;24829;49.208;12.080;2024-03-08T06:37:31;39.38;;;21.25;;
39078;SDS011;24829;49.208;12.080;2024-03-08T06:39:57;43.03;;;23.45;;
39078;SDS011;24829;49.208;12.080;2024-03-08T06:42:23;43.60;;;23.58;;
39078;SDS011;24829;49.208;12.080;2024-03-08T06:44:48;37.53;;;20.20;;
39078;SDS011;24829;49.208;12.080;2024-03-08T06:47:17;40.85;;;22.20;;
39078;SDS011;24829;49.208;12.080;2024-03-08T06:49:43;41.13;;;21.92;;
39078;SDS011;24829;49.208;12.080;2024-03-08T06:52:12;43.35;;;23.50;;
39078;SDS011;24829;49.208;12.080;2024-03-08T06:54:37;41.92;;;22.60;;
39078;SDS011;24829;49.208;12.080;2024-03-08T06:57:03;38.53;;;21.33;;
39078;SDS011;24829;49.208;12.080;2024-03-08T06:59:30;39.03;;;22.70;;
39078;SDS011;24829;49.208;12.080;2024-03-08T07:01:56;46.55;;;22.40;;
39078;SDS011;24829;49.208;12.080;2024-03-08T07:04:21;38.50;;;22.33;;
39078;SDS011;24829;49.208;12.080;2024-03-08T07:06:51;41.22;;;24.08;;
39078;SDS011;24829;49.208;12.080;2024-03-08T07:09:17;41.97;;;23.25;;
39078;SDS011;24829;49.208;12.080;2024-03-08T07:11:42;44.10;;;24.58;;
39078;SDS011;24829;49.208;12.080;2024-03-08T07:14:08;40.50;;;24.00;;
39078;SDS011;24829;49.208;12.080;2024-03-08T07:16:34;44.13;;;23.77;;
39078;SDS011;24829;49.208;12.080;2024-03-08T07:19:04;42.50;;;24.10;;
39078;SDS011;24829;49.208;12.080;2024-03-08T07:21:30;47.88;;;24.33;;
39078;SDS011;24829;49.208;12.080;2024-03-08T07:23:56;43.63;;;24.27;;
39078;SDS011;24829;49.208;12.080;2024-03-08T07:26:25;43.22;;;24.02;;
39078;SDS011;24829;49.208;12.080;2024-03-08T07:28:50;45.35;;;24.00;;
39078;SDS011;24829;49.208;12.080;2024-03-08T07:31:19;45.08;;;24.15;;
39078;SDS011;24829;49.208;12.080;2024-03-08T07:33:50;47.95;;;24.25;;
39078;SDS011;24829;49.208;12.080;2024-03-08T07:36:18;45.92;;;24.25;;
39078;SDS011;24829;49.208;12.080;2024-03-08T07:38:47;45.40;;;22.80;;
39078;SDS011;24829;49.208;12.080;2024-03-08T07:41:13;47.10;;;23.75;;
39078;SDS011;24829;49.208;12.080;2024-03-08T07:43:40;46.88;;;24.88;;
39078;SDS011;24829;49.208;12.080;2024-03-08T07:46:05;49.15;;;23.58;;
39078;SDS011;24829;49.208;12.080;2024-03-08T07:48:31;42.88;;;23.88;;
39078;SDS011;24829;49.208;12.080;2024-03-08T07:50:57;46.25;;;24.88;;
39078;SDS011;24829;49.208;12.080;2024-03-08T07:53:22;49.28;;;26.60;;
39078;SDS011;24829;49.208;12.080;2024-03-08T07:55:51;46.53;;;24.55;;
39078;SDS011;24829;49.208;12.080;2024-03-08T07:58:17;49.47;;;24.77;;
39078;SDS011;24829;49.208;12.080;2024-03-08T08:00:43;53.58;;;26.13;;
39078;SDS011;24829;49.208;12.080;2024-03-08T08:03:09;47.65;;;25.10;;
39078;SDS011;24829;49.208;12.080;2024-03-08T08:05:35;47.13;;;25.83;;
39078;SDS011;24829;49.208;12.080;2024-03-08T08:08:02;48.72;;;24.23;;
39078;SDS011;24829;49.208;12.080;2024-03-08T08:10:31;48.83;;;26.25;;
39078;SDS011;24829;49.208;12.080;2024-03-08T08:12:57;50.42;;;25.55;;
39078;SDS011;24829;49.208;12.080;2024-03-08T08:15:23;45.45;;;22.50;;
39078;SDS011;24829;49.208;12.080;2024-03-08T08:17:49;48.08;;;24.92;;
39078;SDS011;24829;49.208;12.080;2024-03-08T08:20:15;48.50;;;24.38;;
39078;SDS011;24829;49.208;12.080;2024-03-08T08:22:43;44.90;;;21.40;;
39078;SDS011;24829;49.208;12.080;2024-03-08T08:28:29;44.30;;;23.85;;
39078;SDS011;24829;49.208;12.080;2024-03-08T08:30:55;44.55;;;21.02;;
39078;SDS011;24829;49.208;12.080;2024-03-08T08:33:21;50.90;;;23.02;;
39078;SDS011;24829;49.208;12.080;2024-03-08T08:35:47;48.90;;;24.08;;
39078;SDS011;24829;49.208;12.080;2024-03-08T08:38:13;46.28;;;23.05;;
39078;SDS011;24829;49.208;12.080;2024-03-08T08:40:38;44.30;;;22.88;;
39078;SDS011;24829;49.208;12.080;2024-03-08T08:43:04;42.00;;;21.95;;
39078;SDS011;24829;49.208;12.080;2024-03-08T08:45:30;50.65;;;25.60;;
39078;SDS011;24829;49.208;12.080;2024-03-08T08:47:56;44.53;;;23.95;;
39078;SDS011;24829;49.208;12.080;2024-03-08T08:50:24;42.10;;;22.38;;
39078;SDS011;24829;49.208;12.080;2024-03-08T08:52:51;44.25;;;23.85;;
39078;SDS011;24829;49.208;12.080;2024-03-08T08:55:18;37.65;;;18.95;;
39078;SDS011;24829;49.208;12.080;2024-03-08T08:57:46;37.78;;;19.90;;
39078;SDS011;24829;49.208;12.080;2024-03-08T09:00:12;38.55;;;20.85;;
39078;SDS011;24829;49.208;12.080;2024-03-08T09:02:41;35.70;;;20.23;;
39078;SDS011;24829;49.208;12.080;2024-03-08T09:05:07;34.67;;;19.20;;
39078;SDS011;24829;49.208;12.080;2024-03-08T09:07:33;38.85;;;21.67;;
39078;SDS011;24829;49.208;12.080;2024-03-08T09:09:59;39.05;;;20.83;;
39078;SDS011;24829;49.208;12.080;2024-03-08T09:12:25;39.78;;;21.08;;
39078;SDS011;24829;49.208;12.080;2024-03-08T09:14:51;39.80;;;21.20;;
39078;SDS011;24829;49.208;12.080;2024-03-08T09:17:17;35.40;;;19.35;;
39078;SDS011;24829;49.208;12.080;2024-03-08T09:19:46;32.88;;;19.25;;
39078;SDS011;24829;49.208;12.080;2024-03-08T09:22:12;36.28;;;20.83;;
39078;SDS011;24829;49.208;12.080;2024-03-08T09:24:38;36.10;;;19.15;;
39078;SDS011;24829;49.208;12.080;2024-03-08T09:27:04;35.22;;;18.13;;
39078;SDS011;24829;49.208;12.080;2024-03-08T09:29:30;36.78;;;19.63;;
39078;SDS011;24829;49.208;12.080;2024-03-08T09:31:55;33.60;;;18.60;;
39078;SDS011;24829;49.208;12.080;2024-03-08T09:34:21;36.80;;;19.13;;
39078;SDS011;24829;49.208;12.080;2024-03-08T09:36:47;30.35;;;17.27;;
39078;SDS011;24829;49.208;12.080;2024-03-08T09:39:13;31.83;;;16.48;;
39078;SDS011;24829;49.208;12.080;2024-03-08T09:41:45;32.03;;;16.35;;
39078;SDS011;24829;49.208;12.080;2024-03-08T09:44:13;26.88;;;16.08;;
39078;SDS011;24829;49.208;12.080;2024-03-08T09:46:39;30.90;;;16.38;;
39078;SDS011;24829;49.208;12.080;2024-03-08T09:49:05;26.77;;;14.75;;
39078;SDS011;24829;49.208;12.080;2024-03-08T09:51:33;25.48;;;15.73;;
39078;SDS011;24829;49.208;12.080;2024-03-08T09:54:02;29.40;;;15.40;;
39078;SDS011;24829;49.208;12.080;2024-03-08T09:56:34;24.52;;;14.48;;
39078;SDS011;24829;49.208;12.080;2024-03-08T09:59:01;24.40;;;15.38;;
39078;SDS011;24829;49.208;12.080;2024-03-08T10:02:05;25.80;;;14.95;;
39078;SDS011;24829;49.208;12.080;2024-03-08T10:04:30;23.67;;;11.93;;
39078;SDS011;24829;49.208;12.080;2024-03-08T10:07:00;30.92;;;13.75;;
39078;SDS011;24829;49.208;12.080;2024-03-08T10:09:26;25.60;;;14.32;;
39078;SDS011;24829;49.208;12.080;2024-03-08T10:11:56;24.77;;;13.43;;
39078;SDS011;24829;49.208;12.080;2024-03-08T10:14:23;27.08;;;14.70;;
39078;SDS011;24829;49.208;12.080;2024-03-08T10:16:49;18.60;;;11.40;;
39078;SDS011;24829;49.208;12.080;2024-03-08T10:19:15;25.95;;;13.25;;
39078;SDS011;24829;49.208;12.080;2024-03-08T10:21:48;21.50;;;12.70;;
39078;SDS011;24829;49.208;12.080;2024-03-08T10:24:14;21.90;;;12.98;;
39078;SDS011;24829;49.208;12.080;2024-03-08T10:26:40;29.42;;;14.90;;
39078;SDS011;24829;49.208;12.080;2024-03-08T10:29:08;22.95;;;13.57;;
39078;SDS011;24829;49.208;12.080;2024-03-08T10:31:34;29.20;;;13.77;;
39078;SDS011;24829;49.208;12.080;2024-03-08T10:34:00;27.13;;;14.27;;
39078;SDS011;24829;49.208;12.080;2024-03-08T10:36:27;26.42;;;14.93;;
39078;SDS011;24829;49.208;12.080;2024-03-08T10:38:53;23.92;;;12.55;;
39078;SDS011;24829;49.208;12.080;2024-03-08T10:41:21;26.92;;;15.57;;
39078;SDS011;24829;49.208;12.080;2024-03-08T10:47:02;25.90;;;13.90;;
39078;SDS011;24829;49.208;12.080;2024-03-08T10:49:38;23.90;;;12.88;;
39078;SDS011;24829;49.208;12.080;2024-03-08T10:52:09;22.00;;;13.65;;
39078;SDS011;24829;49.208;12.080;2024-03-08T10:54:38;22.30;;;13.18;;
39078;SDS011;24829;49.208;12.080;2024-03-08T10:57:06;22.23;;;13.23;;
39078;SDS011;24829;49.208;12.080;2024-03-08T10:59:33;27.73;;;13.68;;
39078;SDS011;24829;49.208;12.080;2024-03-08T11:02:00;19.77;;;12.10;;
39078;SDS011;24829;49.208;12.080;2024-03-08T11:04:26;22.50;;;13.38;;
39078;SDS011;24829;49.208;12.080;2024-03-08T11:06:54;23.67;;;14.40;;
39078;SDS011;24829;49.208;12.080;2024-03-08T11:09:31;22.92;;;13.45;;
39078;SDS011;24829;49.208;12.080;2024-03-08T11:14:51;22.83;;;13.60;;
39078;SDS011;24829;49.208;12.080;2024-03-08T11:17:21;21.83;;;12.15;;
39078;SDS011;24829;49.208;12.080;2024-03-08T11:20:14;25.23;;;13.40;;
39078;SDS011;24829;49.208;12.080;2024-03-08T11:22:47;21.65;;;13.70;;
39078;SDS011;24829;49.208;12.080;2024-03-08T11:25:30;19.95;;;11.63;;
39078;SDS011;24829;49.208;12.080;2024-03-08T11:30:45;20.98;;;12.82;;
39078;SDS011;24829;49.208;12.080;2024-03-08T11:33:13;20.10;;;12.77;;
39078;SDS011;24829;49.208;12.080;2024-03-08T11:35:41;19.30;;;12.55;;
39078;SDS011;24829;49.208;12.080;2024-03-08T11:38:10;18.73;;;11.88;;
39078;SDS011;24829;49.208;12.080;2024-03-08T11:40:36;17.73;;;10.20;;
39078;SDS011;24829;49.208;12.080;2024-03-08T11:43:02;18.13;;;10.60;;
39078;SDS011;24829;49.208;12.080;2024-03-08T11:45:32;17.52;;;11.20;;
39078;SDS011;24829;49.208;12.080;2024-03-08T11:48:01;16.88;;;11.05;;
39078;SDS011;24829;49.208;12.080;2024-03-08T11:50:28;16.95;;;9.60;;
39078;SDS011;24829;49.208;12.080;2024-03-08T11:53:00;18.55;;;10.35;;
39078;SDS011;24829;49.208;12.080;2024-03-08T11:55:27;17.35;;;10.18;;
39078;SDS011;24829;49.208;12.080;2024-03-08T11:58:03;15.63;;;10.43;;
39078;SDS011;24829;49.208;12.080;2024-03-08T12:00:30;15.85;;;10.02;;
39078;SDS011;24829;49.208;12.080;2024-03-08T12:03:06;14.88;;;9.20;;
39078;SDS011;24829;49.208;12.080;2024-03-08T12:05:34;15.93;;;10.25;;
39078;SDS011;24829;49.208;12.080;2024-03-08T12:08:04;15.32;;;10.27;;
39078;SDS011;24829;49.208;12.080;2024-03-08T12:10:37;15.50;;;9.57;;
39078;SDS011;24829;49.208;12.080;2024-03-08T12:13:03;14.88;;;8.98;;
39078;SDS011;24829;49.208;12.080;2024-03-08T12:15:31;13.80;;;8.48;;
39078;SDS011;24829;49.208;12.080;2024-03-08T12:17:59;15.05;;;10.07;;
39078;SDS011;24829;49.208;12.080;2024-03-08T12:20:26;22.83;;;13.15;;
39078;SDS011;24829;49.208;12.080;2024-03-08T12:22:54;15.30;;;9.25;;
39078;SDS011;24829;49.208;12.080;2024-03-08T12:25:21;13.80;;;8.93;;
39078;SDS011;24829;49.208;12.080;2024-03-08T12:27:47;13.57;;;8.60;;
39078;SDS011;24829;49.208;12.080;2024-03-08T12:30:17;16.10;;;9.82;;
39078;SDS011;24829;49.208;12.080;2024-03-08T12:32:51;13.02;;;8.80;;
39078;SDS011;24829;49.208;12.080;2024-03-08T12:35:18;11.65;;;8.23;;
39078;SDS011;24829;49.208;12.080;2024-03-08T12:37:47;14.00;;;8.60;;
39078;SDS011;24829;49.208;12.080;2024-03-08T12:40:14;10.88;;;6.80;;
39078;SDS011;24829;49.208;12.080;2024-03-08T12:42:42;14.00;;;8.43;;
39078;SDS011;24829;49.208;12.080;2024-03-08T12:45:08;14.88;;;8.65;;
39078;SDS011;24829;49.208;12.080;2024-03-08T12:47:35;13.43;;;8.60;;
39078;SDS011;24829;49.208;12.080;2024-03-08T12:50:01;13.25;;;8.20;;
39078;SDS011;24829;49.208;12.080;2024-03-08T12:52:28;12.18;;;8.05;;
39078;SDS011;24829;49.208;12.080;2024-03-08T12:54:55;16.23;;;8.73;;
39078;SDS011;24829;49.208;12.080;2024-03-08T12:57:20;13.52;;;9.30;;
39078;SDS011;24829;49.208;12.080;2024-03-08T12:59:46;15.38;;;9.65;;
39078;SDS011;24829;49.208;12.080;2024-03-08T13:02:12;12.75;;;8.30;;
39078;SDS011;24829;49.208;12.080;2024-03-08T13:04:37;12.82;;;7.90;;
39078;SDS011;24829;49.208;12.080;2024-03-08T13:07:03;13.57;;;8.60;;
39078;SDS011;24829;49.208;12.080;2024-03-08T13:09:29;13.88;;;8.45;;
39078;SDS011;24829;49.208;12.080;2024-03-08T13:11:54;14.13;;;8.35;;
39078;SDS011;24829;49.208;12.080;2024-03-08T13:14:20;13.30;;;8.52;;
39078;SDS011;24829;49.208;12.080;2024-03-08T13:16:46;14.43;;;8.60;;
39078;SDS011;24829;49.208;12.080;2024-03-08T13:19:13;12.13;;;8.68;;
39078;SDS011;24829;49.208;12.080;2024-03-08T13:21:38;12.90;;;8.02;;
39078;SDS011;24829;49.208;12.080;2024-03-08T13:24:04;13.52;;;9.05;;
39078;SDS011;24829;49.208;12.080;2024-03-08T13:26:30;12.68;;;8.55;;
39078;SDS011;24829;49.208;12.080;2024-03-08T13:28:59;13.55;;;9.05;;
39078;SDS011;24829;49.208;12.080;2024-03-08T13:31:24;11.90;;;8.50;;
39078;SDS011;24829;49.208;12.080;2024-03-08T13:33:50;14.90;;;8.25;;
39078;SDS011;24829;49.208;12.080;2024-03-08T13:36:22;13.70;;;8.95;;
39078;SDS011;24829;49.208;12.080;2024-03-08T13:38:49;14.93;;;9.40;;
39078;SDS011;24829;49.208;12.080;2024-03-08T13:41:15;14.30;;;9.25;;
39078;SDS011;24829;49.208;12.080;2024-03-08T13:43:42;18.05;;;9.73;;
39078;SDS011;24829;49.208;12.080;2024-03-08T13:46:11;15.52;;;10.27;;
39078;SDS011;24829;49.208;12.080;2024-03-08T13:48:37;15.50;;;9.45;;
39078;SDS011;24829;49.208;12.080;2024-03-08T13:51:06;16.15;;;9.43;;
39078;SDS011;24829;49.208;12.080;2024-03-08T13:53:33;14.02;;;8.70;;
39078;SDS011;24829;49.208;12.080;2024-03-08T13:56:00;15.75;;;9.20;;
39078;SDS011;24829;49.208;12.080;2024-03-08T13:58:27;13.55;;;9.25;;
39078;SDS011;24829;49.208;12.080;2024-03-08T14:00:52;17.15;;;11.30;;
39078;SDS011;24829;49.208;12.080;2024-03-08T14:03:18;14.48;;;8.65;;
39078;SDS011;24829;49.208;12.080;2024-03-08T14:05:44;23.83;;;16.73;;
39078;SDS011;24829;49.208;12.080;2024-03-08T14:08:11;16.55;;;11.75;;
39078;SDS011;24829;49.208;12.080;2024-03-08T14:10:37;34.20;;;29.38;;
39078;SDS011;24829;49.208;12.080;2024-03-08T14:13:03;16.60;;;12.27;;
39078;SDS011;24829;49.208;12.080;2024-03-08T14:15:33;15.32;;;9.43;;
39078;SDS011;24829;49.208;12.080;2024-03-08T14:17:59;15.40;;;9.32;;
39078;SDS011;24829;49.208;12.080;2024-03-08T14:20:26;14.93;;;9.73;;
39078;SDS011;24829;49.208;12.080;2024-03-08T14:22:55;13.45;;;8.40;;
39078;SDS011;24829;49.208;12.080;2024-03-08T14:25:21;13.27;;;8.02;;